Time;durP1;ratioP1;P1;durP2;ratioP2;P2;SDS_P1;SDS_P2;PMS_P1;PMS_P2;Temp;Humidity;BMP_temperature;BMP_pressure;BME280_temperature;BME280_humidity;BME280_pressure;Samples;Min_cycle;Max_cycle;Signal;HPM_P1;HPM_P2
2023/03/20 00:00:09;;;;;;;121.95;12.93;;;;;;;5.37;64.63;95650.47;5035094;28;20060;-74
2023/03/20 00:02:34;;;;;;;202.25;13.38;;;;;;;5.38;64.81;95649.50;5021392;28;20135;-73
2023/03/20 00:05:00;;;;;;;55.75;10.73;;;;;;;5.71;63.83;95655.19;5039250;28;20397;-74
2023/03/20 00:07:26;;;;;;;46.15;10.07;;;;;;;5.35;64.17;95647.97;5039677;28;20075;-74
2023/03/20 00:09:52;;;;;;;22.63;6.82;;;;;;;5.05;65.82;95652.47;5041087;28;20174;-74
2023/03/20 00:12:21;;;;;;;67.35;10.43;;;;;;;4.90;67.22;95652.06;5038505;28;20045;-74
2023/03/20 00:14:46;;;;;;;;;;;;;;;4.86;67.34;95652.53;5037278;28;20124;-73
2023/03/20 00:17:16;;;;;;;38.53;10.80;;;;;;;4.82;67.56;95665.97;5019830;28;20059;-74
2023/03/20 00:19:42;;;;;;;47.38;9.77;;;;;;;5.03;67.13;95654.41;5020881;28;20079;-74
2023/03/20 00:22:07;;;;;;;57.72;11.02;;;;;;;5.34;65.80;95656.06;5043075;28;20042;-73
2023/03/20 00:24:33;;;;;;;61.40;9.77;;;;;;;5.22;64.40;95656.22;5039938;28;20033;-73
2023/03/20 00:26:58;;;;;;;50.35;9.68;;;;;;;5.56;64.70;95657.50;5036322;28;20072;-74
2023/03/20 00:29:29;;;;;;;92.70;11.25;;;;;;;5.88;64.22;95658.03;5040891;28;20032;-74
2023/03/20 00:31:55;;;;;;;81.47;10.75;;;;;;;5.63;64.84;95660.38;5006067;28;20100;-74
2023/03/20 00:34:22;;;;;;;72.57;9.55;;;;;;;5.59;64.77;95662.50;5020804;28;20784;-74
2023/03/20 00:36:48;;;;;;;40.55;9.68;;;;;;;5.21;66.38;95659.00;5029266;28;20047;-73
2023/03/20 00:39:13;;;;;;;74.15;10.70;;;;;;;5.12;66.33;95654.56;5040239;28;20068;-73
2023/03/20 00:42:07;;;;;;;93.07;11.07;;;;;;;5.20;66.23;95657.31;5038527;28;20113;-73
2023/03/20 00:44:43;;;;;;;55.83;11.73;;;;;;;5.22;66.50;95658.88;5036555;28;20077;-74
2023/03/20 00:47:16;;;;;;;55.85;9.93;;;;;;;5.51;65.59;95664.19;5020034;28;20124;-74
2023/03/20 00:49:41;;;;;;;92.55;12.38;;;;;;;5.27;66.74;95665.53;5022679;28;20032;-74
2023/03/20 00:52:11;;;;;;;129.15;13.68;;;;;;;5.24;66.74;95671.94;5036161;28;20059;-74
2023/03/20 00:54:36;;;;;;;76.55;12.88;;;;;;;5.89;64.49;95669.44;5028086;28;20037;-73
2023/03/20 00:57:07;;;;;;;190.45;15.98;;;;;;;6.02;63.95;95663.81;5039553;28;20591;-74
2023/03/20 00:59:37;;;;;;;166.00;17.77;;;;;;;6.02;64.65;95666.47;5036975;28;20037;-74
2023/03/20 01:02:02;;;;;;;86.95;12.85;;;;;;;5.95;64.02;95663.59;5021981;28;20739;-74
2023/03/20 01:04:38;;;;;;;51.45;16.10;;;;;;;5.76;64.12;95665.34;5018985;28;20037;-74
2023/03/20 01:07:04;;;;;;;237.95;19.27;;;;;;;5.40;65.37;95673.94;5036266;28;20044;-74
2023/03/20 01:09:29;;;;;;;107.75;12.70;;;;;;;4.38;69.11;95670.84;5036329;28;20482;-74
2023/03/20 01:11:55;;;;;;;41.60;10.20;;;;;;;4.26;70.69;95672.78;5037882;28;20101;-74
2023/03/20 01:14:20;;;;;;;142.70;14.38;;;;;;;4.53;69.07;95672.09;5040785;28;20046;-74
2023/03/20 01:16:45;;;;;;;54.17;10.45;;;;;;;4.13;70.64;95673.03;5041934;28;20074;-74
2023/03/20 01:19:14;;;;;;;90.72;14.00;;;;;;;4.10;71.24;95670.66;5043835;28;20067;-74
2023/03/20 01:21:40;;;;;;;99.45;15.20;;;;;;;4.59;69.53;95678.63;5041975;28;20040;-74
2023/03/20 01:24:06;;;;;;;159.13;17.75;;;;;;;4.94;68.13;95682.47;5040936;28;20402;-74
2023/03/20 01:26:35;;;;;;;99.00;15.55;;;;;;;5.16;66.77;95684.97;5041213;28;20042;-73
2023/03/20 01:29:02;;;;;;;79.93;9.55;;;;;;;4.57;67.72;95680.56;5024709;28;20017;-74
2023/03/20 01:31:27;;;;;;;89.15;10.43;;;;;;;3.74;71.59;95689.56;5023894;28;20084;-73
2023/03/20 01:33:53;;;;;;;142.55;11.98;;;;;;;3.53;72.07;95688.66;5041560;28;20110;-74
2023/03/20 01:36:20;;;;;;;201.50;15.32;;;;;;;3.22;74.32;95691.25;5042112;28;20025;-74
2023/03/20 01:38:48;;;;;;;177.30;13.10;;;;;;;3.11;75.27;95700.06;5042655;28;20044;-74
2023/03/20 01:41:16;;;;;;;158.95;13.52;;;;;;;3.09;74.79;95695.88;5024977;28;20112;-74
2023/03/20 01:43:43;;;;;;;48.53;9.10;;;;;;;3.30;73.16;95690.56;5040514;28;20444;-74
2023/03/20 01:46:08;;;;;;;161.20;13.63;;;;;;;3.53;73.35;95693.94;5042200;28;20512;-74
2023/03/20 01:48:49;;;;;;;335.27;17.10;;;;;;;3.63;72.65;95693.97;5041569;28;20057;-74
2023/03/20 01:51:17;;;;;;;64.68;9.00;;;;;;;3.26;74.17;95690.00;5042285;28;20301;-74
2023/03/20 01:53:47;;;;;;;125.95;15.82;;;;;;;3.41;72.60;95692.31;5042409;28;20547;-74
2023/03/20 01:56:13;;;;;;;81.40;12.77;;;;;;;3.52;73.02;95699.31;5022950;28;20548;-74
2023/03/20 01:58:41;;;;;;;82.22;11.05;;;;;;;3.32;72.82;95686.03;5041556;28;20164;-74
2023/03/20 02:01:07;;;;;;;48.78;10.23;;;;;;;3.09;73.65;95693.25;5043237;28;20053;-69
2023/03/20 02:03:33;;;;;;;50.35;10.00;;;;;;;3.08;73.74;95697.66;5023569;28;20615;-69
2023/03/20 02:05:58;;;;;;;97.65;11.73;;;;;;;3.23;72.42;95697.34;5042700;28;20182;-69
2023/03/20 02:08:26;;;;;;;97.32;9.48;;;;;;;3.15;73.79;95697.97;5041482;28;20068;-69
2023/03/20 02:10:51;;;;;;;81.93;9.43;;;;;;;3.39;72.25;95689.81;5041874;28;20121;-69
2023/03/20 02:13:17;;;;;;;92.45;7.95;;;;;;;3.06;73.20;95693.50;5040319;28;20540;-70
2023/03/20 02:16:00;;;;;;;269.48;14.90;;;;;;;3.67;71.34;95687.47;5039496;28;20068;-70
2023/03/20 02:18:25;;;;;;;69.30;6.72;;;;;;;3.36;71.28;95690.06;5040558;28;20048;-70
2023/03/20 02:21:28;;;;;;;91.10;7.38;;;;;;;3.09;72.84;95688.00;5040177;28;20102;-70
2023/03/20 02:24:28;;;;;;;70.85;6.88;;;;;;;2.57;74.16;95696.59;5036441;28;20068;-70
2023/03/20 02:27:13;;;;;;;112.65;6.75;;;;;;;2.54;74.09;95697.69;5039351;28;20080;-70
2023/03/20 02:30:00;;;;;;;120.75;8.40;;;;;;;2.14;75.46;95699.97;5040437;28;20500;-70
2023/03/20 02:33:08;;;;;;;287.98;11.25;;;;;;;2.52;74.65;95689.09;5040220;28;20073;-70
2023/03/20 02:35:58;;;;;;;47.65;6.63;;;;;;;2.74;73.48;95703.94;5038774;28;20108;-70
2023/03/20 02:38:41;;;;;;;221.70;10.02;;;;;;;3.20;71.94;95692.34;5040418;28;20102;-70
2023/03/20 02:41:21;;;;;;;55.15;6.85;;;;;;;2.94;71.54;95693.56;5040036;28;20528;-70
2023/03/20 02:44:18;;;;;;;127.47;10.30;;;;;;;3.13;70.86;95692.84;5039976;28;20077;-70
2023/03/20 02:47:07;;;;;;;130.90;7.85;;;;;;;3.11;70.52;95694.78;5037801;28;20041;-70
2023/03/20 02:49:51;;;;;;;382.02;13.15;;;;;;;2.74;70.97;95703.09;5023301;28;20414;-70
2023/03/20 02:52:39;;;;;;;120.10;7.57;;;;;;;2.23;72.41;95702.81;5039324;28;20084;-70
2023/03/20 02:55:17;;;;;;;139.80;9.87;;;;;;;2.54;72.05;95708.19;5039273;28;20074;-70
2023/03/20 02:58:08;;;;;;;75.32;6.15;;;;;;;2.24;72.82;95707.09;5038808;28;20291;-70
2023/03/20 03:00:37;;;;;;;127.43;9.55;;;;;;;1.97;73.35;95714.44;5038092;28;20078;-70
2023/03/20 03:03:41;;;;;;;99.88;8.85;;;;;;;1.49;74.85;95710.25;5021156;28;20068;-70
2023/03/20 03:06:20;;;;;;;223.02;18.27;;;;;;;1.16;75.91;95723.19;5017882;28;20268;-70
2023/03/20 03:08:48;;;;;;;92.18;12.25;;;;;;;1.18;76.06;95721.31;5038690;28;20162;-70
2023/03/20 03:11:13;;;;;;;119.25;19.58;;;;;;;0.51;79.21;95728.00;5020948;28;20073;-70
2023/03/20 03:13:48;;;;;;;161.43;18.52;;;;;;;0.19;80.23;95725.00;5039299;28;20063;-70
2023/03/20 03:16:16;;;;;;;158.15;20.02;;;;;;;0.28;80.09;95731.34;5027494;28;20240;-70
2023/03/20 03:18:41;;;;;;;36.67;12.32;;;;;;;0.42;80.13;95726.91;5037227;28;20115;-70
2023/03/20 03:21:07;;;;;;;34.80;13.32;;;;;;;0.57;79.20;95727.56;5038740;28;20516;-70
2023/03/20 03:23:50;;;;;;;93.88;16.33;;;;;;;0.49;79.80;95730.75;5021455;28;20161;-70
2023/03/20 03:26:36;;;;;;;106.40;14.65;;;;;;;1.06;77.24;95717.00;5020566;28;20098;-70
2023/03/20 03:29:13;;;;;;;121.47;16.40;;;;;;;0.94;76.82;95711.72;5021331;28;20346;-70
2023/03/20 03:31:39;;;;;;;42.13;13.27;;;;;;;0.93;76.65;95703.97;5037151;28;20079;-70
2023/03/20 03:34:04;;;;;;;36.97;12.13;;;;;;;0.66;78.30;95705.09;5037059;28;20046;-70
2023/03/20 03:37:01;;;;;;;33.65;17.48;;;;;;;0.44;78.61;95709.25;5020472;28;20070;-70
2023/03/20 03:39:49;;;;;;;20.05;10.82;;;;;;;0.64;78.28;95709.59;5037305;28;20409;-70
2023/03/20 03:42:30;;;;;;;17.75;9.82;;;;;;;0.70;77.95;95719.63;5035260;28;20421;-70
2023/03/20 03:45:06;;;;;;;19.75;11.50;;;;;;;0.96;77.15;95716.84;5019991;28;20078;-70
2023/03/20 03:47:36;;;;;;;25.85;14.52;;;;;;;1.07;76.37;95727.38;5037131;28;20643;-69
2023/03/20 03:50:13;;;;;;;24.30;12.15;;;;;;;1.47;74.19;95714.78;5028337;28;20050;-70
2023/03/20 03:52:39;;;;;;;22.45;11.57;;;;;;;1.34;74.94;95718.38;5022001;28;20078;-70
2023/03/20 03:55:10;;;;;;;19.70;11.40;;;;;;;1.24;75.04;95720.00;5037712;28;20067;-70
2023/03/20 03:57:38;;;;;;;25.25;14.63;;;;;;;0.97;76.18;95729.84;5020812;28;20048;-70
2023/03/20 04:00:05;;;;;;;32.60;15.47;;;;;;;0.81;77.15;95740.63;5035739;28;20071;-69
2023/03/20 04:02:30;;;;;;;24.52;14.02;;;;;;;1.16;75.82;95738.13;5034186;28;20076;-70
2023/03/20 04:04:56;;;;;;;28.40;11.23;;;;;;;1.20;75.41;95731.69;5020060;28;20052;-69
2023/03/20 04:07:24;;;;;;;34.58;17.95;;;;;;;1.67;74.21;95731.63;5036130;28;20581;-70
2023/03/20 04:09:49;;;;;;;22.70;12.90;;;;;;;1.56;74.36;95745.59;5020001;28;20083;-70
2023/03/20 04:12:34;;;;;;;31.52;13.55;;;;;;;1.25;75.41;95755.78;5039360;28;20575;-69
2023/03/20 04:15:00;;;;;;;28.40;16.10;;;;;;;0.65;77.01;95753.22;5039078;28;20086;-69
2023/03/20 04:17:25;;;;;;;22.48;12.07;;;;;;;1.27;75.24;95767.00;5037876;28;20054;-70
2023/03/20 04:19:50;;;;;;;23.00;13.65;;;;;;;1.07;76.14;95765.88;5040456;28;20608;-69
2023/03/20 04:22:16;;;;;;;29.63;17.50;;;;;;;0.71;76.88;95763.22;5040876;28;20440;-69
2023/03/20 04:24:41;;;;;;;23.10;12.23;;;;;;;1.07;76.03;95758.84;5037276;28;20063;-70
2023/03/20 04:27:07;;;;;;;23.75;12.82;;;;;;;1.16;75.36;95748.59;5036245;28;20083;-69
2023/03/20 04:29:32;;;;;;;23.35;12.27;;;;;;;1.40;74.35;95752.94;5040524;28;20281;-69
2023/03/20 04:31:58;;;;;;;24.08;14.35;;;;;;;1.81;72.58;95741.06;5038649;28;20078;-69
2023/03/20 04:34:24;;;;;;;27.60;15.55;;;;;;;2.12;71.74;95736.00;5038382;28;20091;-70
2023/03/20 04:36:49;;;;;;;26.35;14.55;;;;;;;2.42;70.01;95733.72;5038888;28;20114;-70
2023/03/20 04:39:15;;;;;;;21.58;13.48;;;;;;;2.58;69.40;95724.56;5039010;28;20086;-70
2023/03/20 04:41:40;;;;;;;29.05;17.60;;;;;;;2.54;69.19;95713.47;5035426;28;20051;-70
2023/03/20 04:44:06;;;;;;;27.98;16.38;;;;;;;3.02;67.23;95716.59;5037717;28;20585;-70
2023/03/20 04:46:31;;;;;;;28.77;16.70;;;;;;;2.85;67.29;95728.50;5039416;28;20159;-70
2023/03/20 04:48:57;;;;;;;29.25;17.75;;;;;;;3.31;65.45;95726.47;5042344;28;20084;-70
2023/03/20 04:51:22;;;;;;;29.40;18.50;;;;;;;3.42;65.27;95701.88;5040633;28;20063;-70
2023/03/20 04:53:47;;;;;;;29.98;18.20;;;;;;;3.78;64.24;95701.50;5043787;28;20619;-70
2023/03/20 04:56:13;;;;;;;26.85;16.38;;;;;;;3.54;64.75;95714.00;5043226;28;20078;-70
2023/03/20 04:58:38;;;;;;;26.10;15.82;;;;;;;3.20;65.04;95714.19;5043424;28;20047;-70
2023/03/20 05:01:04;;;;;;;24.10;14.75;;;;;;;3.75;63.45;95707.88;5038937;28;20051;-70
2023/03/20 05:03:29;;;;;;;25.63;17.92;;;;;;;3.81;63.34;95703.84;5042783;28;20091;-70
2023/03/20 05:05:55;;;;;;;33.10;19.00;;;;;;;3.51;63.71;95703.75;5041771;28;20050;-70
2023/03/20 05:08:20;;;;;;;30.85;19.10;;;;;;;3.54;64.27;95710.56;5042078;28;20375;-70
2023/03/20 05:10:45;;;;;;;23.00;14.02;;;;;;;3.21;65.55;95715.06;5042102;28;20041;-69
2023/03/20 05:13:11;;;;;;;25.50;14.38;;;;;;;2.98;66.45;95709.91;5041249;28;20475;-69
2023/03/20 05:15:36;;;;;;;28.00;16.98;;;;;;;3.14;65.38;95709.47;5038715;28;20068;-70
2023/03/20 05:18:02;;;;;;;23.23;14.13;;;;;;;2.78;66.42;95707.16;5041677;28;20045;-69
2023/03/20 05:20:27;;;;;;;22.73;13.00;;;;;;;2.85;66.89;95710.94;5041405;28;20088;-70
2023/03/20 05:22:53;;;;;;;27.25;17.40;;;;;;;2.47;68.16;95714.91;5040985;28;20071;-70
2023/03/20 05:25:18;;;;;;;27.40;15.73;;;;;;;2.31;68.03;95733.72;5041058;28;20147;-69
2023/03/20 05:27:45;;;;;;;21.52;12.25;;;;;;;1.83;70.52;95738.31;5041483;28;20546;-69
2023/03/20 05:30:11;;;;;;;30.17;16.48;;;;;;;1.95;69.54;95740.00;5039988;28;20047;-70
2023/03/20 05:32:37;;;;;;;29.38;17.23;;;;;;;1.94;69.57;95740.94;5039619;28;20163;-69
2023/03/20 05:35:03;;;;;;;24.45;14.40;;;;;;;2.02;70.47;95740.34;5040999;28;20067;-70
2023/03/20 05:37:29;;;;;;;15.55;10.18;;;;;;;2.09;69.50;95740.69;5041205;28;20066;-69
2023/03/20 05:39:54;;;;;;;22.73;15.88;;;;;;;2.45;67.83;95737.88;5039446;28;20811;-70
2023/03/20 05:42:20;;;;;;;24.23;16.10;;;;;;;2.55;67.37;95741.41;5036829;28;20058;-69
2023/03/20 05:44:45;;;;;;;26.55;16.08;;;;;;;2.76;65.93;95733.56;5022790;28;20096;-70
2023/03/20 05:47:10;;;;;;;22.30;13.40;;;;;;;2.33;68.41;95735.28;5004798;28;20085;-69
2023/03/20 05:49:36;;;;;;;21.65;13.10;;;;;;;2.42;67.36;95735.50;5040902;28;20047;-69
2023/03/20 05:52:01;;;;;;;24.77;15.13;;;;;;;2.62;66.42;95726.81;5039091;28;20075;-70
2023/03/20 05:54:27;;;;;;;20.05;12.70;;;;;;;2.07;68.74;95724.19;5040897;28;20051;-70
2023/03/20 05:56:52;;;;;;;20.10;11.00;;;;;;;2.30;67.48;95737.28;5040486;28;20086;-69
2023/03/20 05:59:18;;;;;;;19.30;12.45;;;;;;;1.95;69.64;95726.88;5040102;28;20103;-70
2023/03/20 06:01:43;;;;;;;28.45;16.92;;;;;;;2.43;67.01;95738.00;5040694;28;20388;-70
2023/03/20 06:04:08;;;;;;;26.75;15.93;;;;;;;2.41;67.47;95732.00;5039232;28;20146;-70
2023/03/20 06:06:36;;;;;;;23.20;14.50;;;;;;;2.30;67.55;95739.91;5040099;28;20051;-69
2023/03/20 06:09:03;;;;;;;26.50;15.25;;;;;;;2.63;66.58;95732.91;5039795;28;20077;-70
2023/03/20 06:11:28;;;;;;;28.85;17.40;;;;;;;2.73;65.57;95738.25;5040027;28;20037;-70
2023/03/20 06:13:54;;;;;;;31.73;15.98;;;;;;;2.32;67.70;95730.13;5039181;28;20587;-70
2023/03/20 06:16:20;;;;;;;30.90;18.13;;;;;;;2.60;66.00;95722.63;5038672;28;20356;-70
2023/03/20 06:18:45;;;;;;;33.33;18.67;;;;;;;3.19;64.95;95714.38;5039825;28;20264;-70
2023/03/20 06:21:11;;;;;;;33.30;19.25;;;;;;;3.10;65.54;95721.22;5040010;28;20058;-70
2023/03/20 06:23:37;;;;;;;30.83;18.67;;;;;;;3.72;63.88;95717.84;5037728;28;20580;-70
2023/03/20 06:26:03;;;;;;;29.88;18.67;;;;;;;4.05;62.53;95721.16;5039474;28;20148;-70
2023/03/20 06:28:28;;;;;;;30.48;18.92;;;;;;;4.29;61.50;95725.22;5037595;28;20596;-70
2023/03/20 06:30:54;;;;;;;30.20;18.60;;;;;;;4.47;61.97;95721.91;5039378;28;20514;-70
2023/03/20 06:33:19;;;;;;;28.73;18.45;;;;;;;4.88;60.95;95714.72;5039323;28;20065;-70
2023/03/20 06:35:45;;;;;;;27.52;17.27;;;;;;;5.14;61.95;95722.06;5044724;28;20073;-70
2023/03/20 06:38:11;;;;;;;24.85;15.77;;;;;;;5.13;59.92;95724.88;5046357;28;20064;-70
2023/03/20 06:40:37;;;;;;;24.92;15.18;;;;;;;5.25;62.29;95725.53;5041745;28;20049;-70
2023/03/20 06:43:02;;;;;;;23.95;16.42;;;;;;;5.35;62.57;95721.91;5043816;28;20033;-70
2023/03/20 06:45:27;;;;;;;25.95;17.48;;;;;;;5.81;57.49;95723.00;5046297;28;20032;-70
2023/03/20 06:47:53;;;;;;;26.52;18.13;;;;;;;5.91;54.23;95731.72;5042761;28;20053;-70
2023/03/20 06:50:18;;;;;;;27.77;18.05;;;;;;;5.63;54.45;95723.78;5045540;28;20379;-69
2023/03/20 06:52:44;;;;;;;29.52;17.48;;;;;;;5.96;59.16;95726.03;5043948;28;20068;-69
2023/03/20 06:55:09;;;;;;;25.55;16.10;;;;;;;6.06;56.20;95728.63;5038945;28;20418;-69
2023/03/20 06:57:35;;;;;;;25.65;16.98;;;;;;;6.01;54.07;95741.44;5043641;28;20059;-69
2023/03/20 07:00:00;;;;;;;22.42;15.05;;;;;;;5.81;55.49;95738.84;5038500;28;20367;-69
2023/03/20 07:02:26;;;;;;;20.02;12.88;;;;;;;4.94;57.53;95745.81;5043927;28;20101;-69
2023/03/20 07:04:52;;;;;;;21.73;13.43;;;;;;;4.43;59.16;95750.38;5049262;28;20048;-69
2023/03/20 07:07:17;;;;;;;19.95;13.30;;;;;;;3.53;61.21;95756.25;5045896;28;20063;-69
2023/03/20 07:09:44;;;;;;;23.35;13.70;;;;;;;3.39;62.07;95745.09;5048286;28;20057;-69
2023/03/20 07:12:14;;;;;;;26.33;16.33;;;;;;;3.57;61.72;95736.59;5035014;28;20074;-69
2023/03/20 07:14:42;;;;;;;24.38;14.98;;;;;;;3.54;60.97;95735.06;5032832;28;20061;-69
2023/03/20 07:17:08;;;;;;;17.48;11.20;;;;;;;3.32;62.60;95736.03;5033887;28;20038;-69
2023/03/20 07:19:37;;;;;;;24.52;15.45;;;;;;;3.57;61.62;95733.97;5039199;28;20075;-69
2023/03/20 07:22:05;;;;;;;23.50;14.50;;;;;;;3.73;60.87;95745.81;5037755;28;20565;-69
2023/03/20 07:24:31;;;;;;;23.02;12.60;;;;;;;3.04;63.04;95735.72;5037406;28;20662;-69
2023/03/20 07:26:56;;;;;;;25.92;15.23;;;;;;;3.46;62.66;95734.03;5036736;28;20134;-69
2023/03/20 07:29:22;;;;;;;23.73;14.68;;;;;;;3.87;61.28;95729.69;5016976;28;20036;-69
2023/03/20 07:31:47;;;;;;;27.15;17.77;;;;;;;3.74;59.32;95745.69;5031824;28;20148;-69
2023/03/20 07:34:13;;;;;;;23.45;13.63;;;;;;;4.17;60.76;95746.41;5040770;28;20063;-69
2023/03/20 07:36:40;;;;;;;23.95;14.75;;;;;;;4.37;60.33;95746.47;5033404;28;20105;-69
2023/03/20 07:39:05;;;;;;;21.67;12.50;;;;;;;3.55;61.92;95760.44;5031767;28;20071;-69
2023/03/20 07:41:31;;;;;;;17.13;10.25;;;;;;;3.65;61.90;95760.50;5034132;28;20068;-69
2023/03/20 07:43:56;;;;;;;22.25;13.27;;;;;;;3.77;61.67;95765.66;5029894;28;20145;-69
2023/03/20 07:46:22;;;;;;;24.13;14.70;;;;;;;3.80;61.71;95771.53;5033663;28;20541;-69
2023/03/20 07:48:47;;;;;;;22.00;14.40;;;;;;;3.53;62.78;95770.28;5035806;28;20573;-69
2023/03/20 07:51:12;;;;;;;20.92;11.50;;;;;;;3.22;63.78;95777.22;5032833;28;20076;-69
2023/03/20 07:53:38;;;;;;;23.60;14.80;;;;;;;3.30;63.50;95788.78;5031427;28;20812;-69
2023/03/20 07:56:03;;;;;;;20.63;13.10;;;;;;;2.16;66.31;95783.06;5036514;28;20069;-69
2023/03/20 07:58:29;;;;;;;21.92;13.30;;;;;;;1.51;68.82;95789.69;5041843;28;20043;-69
2023/03/20 08:00:57;;;;;;;22.38;12.07;;;;;;;1.58;69.27;95798.81;5040603;28;20298;-69
2023/03/20 08:03:22;;;;;;;21.23;12.50;;;;;;;2.28;66.28;95800.47;5012569;28;20063;-69
2023/03/20 08:05:47;;;;;;;19.92;11.52;;;;;;;1.94;68.14;95805.75;5031757;28;20062;-69
2023/03/20 08:08:13;;;;;;;17.17;9.98;;;;;;;1.77;68.41;95805.25;5041249;28;20683;-69
2023/03/20 08:10:38;;;;;;;19.17;11.85;;;;;;;1.98;67.75;95799.31;5030044;28;20269;-70
2023/03/20 08:13:03;;;;;;;18.27;10.48;;;;;;;2.17;67.20;95806.59;5037896;28;20064;-69
2023/03/20 08:15:29;;;;;;;28.35;15.02;;;;;;;1.78;68.82;95798.22;5031842;28;20078;-69
2023/03/20 08:17:57;;;;;;;20.10;12.27;;;;;;;1.98;67.64;95800.13;5016219;28;20043;-69
2023/03/20 08:20:23;;;;;;;25.02;16.08;;;;;;;2.18;67.57;95797.75;5034489;28;20567;-69
2023/03/20 08:22:49;;;;;;;24.35;12.15;;;;;;;2.38;67.34;95804.06;5037161;28;20087;-69
2023/03/20 08:25:14;;;;;;;29.13;15.65;;;;;;;2.51;65.90;95809.16;5038410;28;20352;-69
2023/03/20 08:27:40;;;;;;;29.45;15.77;;;;;;;3.10;65.03;95808.03;5033716;28;20722;-69
2023/03/20 08:30:06;;;;;;;27.80;17.02;;;;;;;3.66;64.24;95796.41;5034916;28;20050;-69
2023/03/20 08:32:31;;;;;;;22.67;14.63;;;;;;;3.94;61.41;95801.09;5036432;28;20073;-69
2023/03/20 08:34:57;;;;;;;22.80;15.35;;;;;;;4.14;60.67;95796.75;5036128;28;20070;-70
2023/03/20 08:37:22;;;;;;;31.83;18.20;;;;;;;4.65;59.35;95802.03;5035097;28;20482;-69
2023/03/20 08:39:48;;;;;;;15.13;9.13;;;;;;;4.13;59.55;95796.88;5038857;28;20087;-69
2023/03/20 08:42:13;;;;;;;24.48;14.18;;;;;;;4.56;58.94;95800.22;5035463;28;20456;-69
2023/03/20 08:44:39;;;;;;;17.70;9.80;;;;;;;3.92;60.43;95801.22;5036743;28;20071;-69
2023/03/20 08:47:06;;;;;;;23.15;14.25;;;;;;;3.19;64.13;95815.16;5037358;28;20091;-69
2023/03/20 08:49:32;;;;;;;19.23;11.77;;;;;;;3.99;60.85;95800.72;5039485;28;20083;-70
2023/03/20 08:51:58;;;;;;;13.48;9.32;;;;;;;4.56;58.60;95803.66;5037096;28;20090;-70
2023/03/20 08:54:24;;;;;;;17.33;10.13;;;;;;;4.30;59.83;95800.69;5039021;28;20047;-70
2023/03/20 08:56:49;;;;;;;16.30;10.25;;;;;;;3.57;61.70;95812.97;5037001;28;20071;-70
2023/03/20 08:59:15;;;;;;;17.95;10.85;;;;;;;3.74;61.04;95806.28;5038389;28;20044;-70
2023/03/20 09:01:40;;;;;;;15.23;8.30;;;;;;;3.22;62.04;95814.06;5040413;28;20053;-70
2023/03/20 09:04:06;;;;;;;19.35;10.15;;;;;;;2.90;62.54;95816.59;5041879;28;20040;-70
2023/03/20 09:06:31;;;;;;;17.23;10.35;;;;;;;3.48;62.04;95819.00;5037028;28;20168;-70
2023/03/20 09:08:57;;;;;;;15.77;9.95;;;;;;;3.79;59.97;95804.09;5037331;28;20045;-70
2023/03/20 09:11:22;;;;;;;16.05;9.38;;;;;;;3.26;63.23;95805.81;5041016;28;20069;-70
2023/03/20 09:13:48;;;;;;;16.23;9.50;;;;;;;3.66;60.49;95814.84;5035380;28;20080;-70
2023/03/20 09:16:13;;;;;;;11.07;6.90;;;;;;;2.78;63.46;95814.97;5033801;28;20065;-69
2023/03/20 09:18:39;;;;;;;15.70;9.00;;;;;;;2.26;65.26;95820.78;5016460;28;20360;-70
2023/03/20 09:21:04;;;;;;;14.40;9.07;;;;;;;2.94;63.86;95813.72;5040293;28;20062;-69
2023/03/20 09:23:30;;;;;;;15.25;9.00;;;;;;;3.41;62.72;95816.84;5035234;28;20558;-70
2023/03/20 09:25:56;;;;;;;14.88;8.18;;;;;;;2.99;64.26;95822.09;5030935;28;20567;-70
2023/03/20 09:28:21;;;;;;;17.00;7.13;;;;;;;3.35;63.11;95822.63;5038208;28;20085;-70
2023/03/20 09:30:47;;;;;;;14.80;7.15;;;;;;;3.09;63.05;95820.34;5033629;28;20565;-70
2023/03/20 09:33:13;;;;;;;19.08;10.35;;;;;;;3.57;60.99;95834.03;5034121;28;20391;-70
2023/03/20 09:35:39;;;;;;;15.25;7.47;;;;;;;2.72;64.48;95831.25;5037341;28;20066;-70
2023/03/20 09:38:05;;;;;;;9.40;6.45;;;;;;;2.72;64.25;95820.72;5044156;28;20575;-70
2023/03/20 09:41:00;;;;;;;15.07;9.18;;;;;;;2.26;64.71;95826.03;5039089;28;20566;-69
2023/03/20 09:43:57;;;;;;;17.83;11.23;;;;;;;1.79;66.72;95828.78;5039884;28;20122;-69
2023/03/20 09:46:26;;;;;;;18.85;10.27;;;;;;;2.36;65.81;95824.38;5023692;28;20053;-69
2023/03/20 09:48:51;;;;;;;;;;;;;;;2.83;63.81;95823.34;5037752;28;20107;-69
2023/03/20 09:51:37;;;;;;;16.63;8.40;;;;;;;2.88;63.28;95821.16;5040729;28;19959;-69
2023/03/20 09:54:20;;;;;;;15.95;8.38;;;;;;;2.78;62.73;95828.94;5037503;28;20081;-69
2023/03/20 09:56:45;;;;;;;15.40;6.30;;;;;;;2.76;63.30;95827.41;5039350;28;20492;-70
2023/03/20 09:59:12;;;;;;;16.20;9.48;;;;;;;3.17;62.46;95822.38;5040984;28;20072;-70
2023/03/20 10:01:48;;;;;;;14.35;8.80;;;;;;;2.91;63.40;95825.31;5036651;28;20054;-70
2023/03/20 10:04:13;;;;;;;16.83;9.38;;;;;;;3.64;61.24;95834.38;5024309;28;20070;-70
2023/03/20 10:06:39;;;;;;;12.07;6.20;;;;;;;3.12;61.54;95835.88;5035258;28;20062;-70
2023/03/20 10:09:25;;;;;;;19.02;8.50;;;;;;;2.81;60.84;95838.38;5037629;28;20123;-70
2023/03/20 10:12:02;;;;;;;12.02;7.25;;;;;;;2.73;60.13;95843.44;5031212;28;20068;-70
2023/03/20 10:14:48;;;;;;;15.05;9.18;;;;;;;3.00;59.64;95848.22;5039098;28;20096;-70
2023/03/20 10:17:58;;;;;;;14.50;8.23;;;;;;;2.58;60.45;95840.25;5037823;28;20470;-70
2023/03/20 10:20:39;;;;;;;14.52;7.43;;;;;;;3.42;59.32;95842.22;5020997;28;20137;-70
2023/03/20 10:23:26;;;;;;;13.32;9.45;;;;;;;3.62;58.03;95839.75;5022170;28;20073;-70
2023/03/20 10:25:54;;;;;;;11.07;6.47;;;;;;;3.89;56.84;95827.84;5037138;28;20560;-70
2023/03/20 10:28:33;;;;;;;12.97;8.63;;;;;;;3.78;56.01;95822.66;5040216;28;20048;-70
2023/03/20 10:31:22;;;;;;;12.63;8.23;;;;;;;3.46;55.94;95831.44;5020401;28;20343;-70
2023/03/20 10:33:54;;;;;;;15.07;8.45;;;;;;;3.40;57.05;95827.50;5036202;28;20107;-70
2023/03/20 10:36:40;;;;;;;12.02;5.50;;;;;;;3.91;56.38;95818.00;5036027;28;20045;-70
2023/03/20 10:39:20;;;;;;;11.13;6.57;;;;;;;4.59;56.51;95821.00;5038106;28;20404;-70
2023/03/20 10:41:58;;;;;;;14.63;8.13;;;;;;;4.41;53.40;95816.41;5035301;28;20031;-70
2023/03/20 10:44:30;;;;;;;11.85;8.25;;;;;;;4.90;51.93;95814.84;5035086;28;20073;-70
2023/03/20 10:46:56;;;;;;;10.25;6.25;;;;;;;4.71;52.00;95811.19;5036919;28;20429;-70
2023/03/20 10:49:42;;;;;;;10.48;6.20;;;;;;;4.36;52.79;95815.13;5037965;28;20052;-70
2023/03/20 10:52:19;;;;;;;10.52;6.32;;;;;;;4.86;51.86;95818.72;5034491;28;20139;-70
2023/03/20 10:54:51;;;;;;;9.50;5.03;;;;;;;4.74;52.01;95810.09;5038753;28;20043;-70
2023/03/20 10:57:25;;;;;;;11.88;6.75;;;;;;;5.08;51.19;95801.81;5038204;28;20039;-70
2023/03/20 10:59:50;;;;;;;10.57;6.10;;;;;;;5.13;50.30;95815.44;5037010;28;20396;-70
2023/03/20 11:02:17;;;;;;;11.00;7.00;;;;;;;5.69;48.63;95802.47;5035157;28;20052;-70
2023/03/20 11:04:43;;;;;;;9.70;5.95;;;;;;;6.08;47.84;95795.38;5037729;28;20115;-70
2023/03/20 11:07:32;;;;;;;9.30;5.88;;;;;;;5.43;50.61;95794.28;5039622;28;20478;-70
2023/03/20 11:10:09;;;;;;;8.38;4.53;;;;;;;5.60;49.81;95798.88;5030806;28;20347;-70
2023/03/20 11:12:40;;;;;;;9.73;5.60;;;;;;;6.26;47.58;95792.81;5036510;28;20048;-69
2023/03/20 11:15:31;;;;;;;11.77;6.60;;;;;;;6.53;46.85;95801.72;5017649;28;20150;-70
2023/03/20 11:17:58;;;;;;;7.28;4.80;;;;;;;5.81;46.29;95804.91;5035015;28;20055;-70
2023/03/20 11:20:24;;;;;;;10.57;6.75;;;;;;;5.03;47.55;95796.09;5038552;28;20044;-70
2023/03/20 11:22:50;;;;;;;7.38;4.68;;;;;;;5.78;46.29;95786.72;5035191;28;20027;-70
2023/03/20 11:25:38;;;;;;;9.60;5.45;;;;;;;5.91;45.49;95799.63;5038385;28;20174;-70
2023/03/20 11:28:35;;;;;;;8.40;5.40;;;;;;;5.60;45.65;95783.00;5035331;28;20368;-69
2023/03/20 11:31:30;;;;;;;15.85;7.90;;;;;;;5.79;44.66;95785.75;5031604;28;20048;-69
2023/03/20 11:34:13;;;;;;;9.80;5.00;;;;;;;5.59;43.12;95780.50;5038412;28;20064;-69
2023/03/20 11:36:40;;;;;;;9.23;4.80;;;;;;;5.33;43.92;95776.66;5033861;28;20163;-70
2023/03/20 11:39:20;;;;;;;5.63;3.63;;;;;;;6.40;41.69;95767.69;5034753;28;20161;-69